Sugar Grove, Illinois
Current Conditions -  °F | °C
As of 12:52 PM on Thursday 30 Oct 2014 (Local Time) from KARR Reporting Station
Overcast Overcast  
Wind Chill: 45°   Ceiling: 8000
Heat Index: 49°   Visibility: 8mi
Dew Point: 35°   Wind: 9mph
Humidity: 59%   Direction: 220°SW
Pressure: 30.1"   Gusts: NA
Location:  41.76°N, 88.44°W
Report Text: KARR 301752Z 22008KT 8SM OVC080 09/02 A3010 RMK AO2 SLP199 T00940017 10100 21017 58010
Loading
Personal Weather Stations






























Interactive Weather Map
Tropical Storm Tracking
New forecast layout! Learn more

10-Day Weather Forecast

Advertisements
Track Severe Weather on mobile